Airfield :
LOGIN :

Register | Disclaimer

   EN    FR    IT 

 










Legend :    VFR   Marginal VFR   IFR   Intensive IFR   Very Intensive IFR
Visi :
Ceiling :
>= 8 km
>= 3000ft
5 to 8 km
1000 to 3000 ft
1500m to 5 km
500 to 1000 ft
800 to 1500m
200 to 500 ft
< 800m
< 200 ft
Symbols :   Thunderstorms  Fog  Heavy snow  Heavy precipitations  Wind > 20 kt
SIGMETs :     Misc.  Thunderstorms  Icing  Turbulence  Mountain Waves  Volcanic Ashes







- Airport Elevation : 424 ft
- IATA code : QGY


LHPR - Györ Per

CURRENT METAR :
  • 231345Z 31013KT 280V350 CAVOK 19/06 Q1019 RMK BLU

EXPIRED METARs :
  • 231315Z 30017KT 270V330 CAVOK 18/07 Q1019 RMK BLU
  • 231245Z 31015KT 260V350 9999 BKN046 18/07 Q1019 RMK BLU
  • 231215Z 31014KT 280V340 9999 SCT046 18/07 Q1020 RMK BLU
  • 231145Z 31017KT 280V350 9999 SCT046 SCT053 19/07 Q1020 RMK BLU
  • 231115Z 31018KT 280V340 9999 SCT043 SCT050 19/07 Q1020 RMK BLU

TAF TAF LHPR
Valid from the 23 at 12:00 until the 23 at 21:00 UTC


231115Z 2312/2321 31012G24KT 9999 SCT040
PROB30
TEMPO 2312/2315 SHRA BKN040TCU
BECMG 2315/2317 CAVOK
BECMG 2317/2320 32008KT
No reported NOTAMs for that airfield.



MET'MAP, your aeronautical weather chart ! - Copyright ORBIFLY December 2007 - Disclaimer

ORBIFLY MET'MAP TEAM :

Programming & Development : Alexandra Zaïnal
Concept & Development : Baudouin d'Aumeries
Co-Development & Prog : Marc-Olivier Méhu
Technical & hardware support : Manuel Goepfert

Contact : metmap@orbifly.com




SOURCES & CREDITS :

   NOAA